الصفحة الرئيسية
METAR-TAF:

METAR-TAF

مطار :

تيجوسيجالبا, هندوراس

دائرة عرض: 14-03N, خط طول: 087-13W, ارتفاع: 994 متر

مراقبة الطقس الحالي

تاريخ ووقت الإصدار 1ساعة و 1 دقيقة قبل الساعة 09:00UTC
رياح هادئة
درجة الحرارة 10°درجة مئوية
الرطوبة 100%
ضغط 1019 hPa
الرؤية 10 كم أو أكثر
غيوم قليلة على ارتفاع 2800 قدم

METAR: MHTG 140900Z 00000KT 9999 FEW028 10/10 Q1019 A3009 NOSIG

زمن: 04:01 (10:01 UTC)

توقعات

تاريخ ووقت الإصدار 5ساعات و 43 دقيقة قبل الساعة 04:18UTC
التوقعات صالحة من14 الساعة 06 UTC إلى 15 الساعة 06 UTC
ريح عقدة من الشمال
الرؤية 10 كم أو أكثر
غيوم قليلة على ارتفاع 2800 قدم
أصبح
من 14 الساعة 10 UTC إلى 14 الساعة 12 UTC
غيوم مفككة على ارتفاع 2500 قدم
أصبح
من 14 الساعة 14 UTC إلى 14 الساعة 16 UTC
ريح 6 عقدة من الشرق
غيوم قليلة على ارتفاع 3000 قدم
أصبح
من 15 الساعة 00 UTC إلى 15 الساعة 02 UTC
ريح 4 عقدة من الشمال

TAF: MHTG 140418Z 1406/1506 00000KT 9999 FEW028 TX27/1420Z TN13/1412Z BECMG 1410/1412 BKN025 BECMG 1414/1416 09006KT FEW030 BECMG 1500/1502 36004KT

أرصاد الطقس والتوقعات من أكثر من 4000 مطار (تقارير الطقس للمطار METAR والتنبؤ بالطقس بالمطارTAF).

المحطات المتاحة هي النقط الصفراء والحمراء على الخريطة.

حرك المؤشر فوق النقطة لمعرفة اسم المحطة.

ثم انقر لمعرفة أرصاد وتوقعات الطقس.

لتغيير الخارطة: اضغط على الأزرار الخضراء مع رمز الصليب الأسود للتكبير. على الزر الأخضر مع شرطة للتصغير، أو على الأسهم الخضراء للخرائط المجاورة.


METAR-TAF: